createdAt,value
2022-07-26T03:58:22.795Z,8.82
2022-07-26T04:00:51.271Z,22.15
2022-07-26T04:03:19.743Z,17.70
2022-07-26T04:05:48.882Z,17.33
2022-07-26T04:08:18.257Z,11.43
2022-07-26T04:10:47.467Z,13.80
2022-07-26T04:13:15.971Z,14.60
2022-07-26T04:15:45.794Z,19.20
2022-07-26T04:18:15.515Z,19.65
2022-07-26T04:20:44.762Z,21.42
2022-07-26T04:23:13.597Z,29.90
2022-07-26T04:25:42.661Z,21.98
2022-07-26T04:28:11.281Z,20.73
2022-07-26T04:30:40.425Z,20.73
2022-07-26T04:33:10.486Z,22.23
2022-07-26T04:35:39.114Z,18.17
2022-07-26T04:38:07.837Z,21.27
2022-07-26T04:40:40.653Z,28.38
2022-07-26T04:43:15.684Z,28.15
2022-07-26T04:45:45.834Z,37.35
2022-07-26T04:48:16.123Z,33.05
2022-07-26T04:50:45.113Z,22.55
2022-07-26T04:53:14.437Z,21.02
2022-07-26T04:55:43.538Z,23.95
2022-07-26T04:58:12.300Z,25.48
2022-07-26T05:01:08.518Z,30.95
2022-07-26T05:03:30.634Z,31.98
2022-07-26T05:05:59.107Z,25.45
2022-07-26T05:08:27.532Z,30.83
2022-07-26T05:10:56.182Z,31.20
2022-07-26T05:13:29.746Z,29.73
2022-07-26T05:16:00.119Z,27.23
2022-07-26T05:18:31.894Z,25.98
2022-07-26T05:21:14.262Z,22.50
2022-07-26T05:23:42.938Z,24.60
2022-07-26T05:26:12.822Z,33.30
2022-07-26T05:28:41.495Z,34.83
2022-07-26T05:31:10.120Z,35.83
2022-07-26T05:33:40.115Z,30.92
2022-07-26T05:36:09.571Z,27.65
2022-07-26T05:38:38.195Z,25.85
2022-07-26T05:41:07.501Z,23.27
2022-07-26T05:43:41.030Z,24.30
2022-07-26T05:46:11.878Z,26.98
2022-07-26T05:48:42.049Z,29.92
2022-07-26T05:51:11.388Z,26.55
2022-07-26T05:53:41.221Z,29.23
2022-07-26T05:56:10.089Z,31.15
2022-07-26T05:58:38.671Z,30.35
2022-07-26T06:01:07.479Z,34.38
2022-07-26T06:03:36.121Z,40.15
2022-07-26T06:06:06.287Z,40.72
2022-07-26T06:08:37.196Z,35.28
2022-07-26T06:11:05.863Z,36.47
2022-07-26T06:13:34.358Z,40.58
2022-07-26T06:16:03.344Z,46.00
2022-07-26T06:18:31.823Z,50.05
2022-07-26T06:21:02.484Z,46.67
2022-07-26T06:23:34.797Z,48.35
2022-07-26T06:26:05.311Z,43.97
2022-07-26T06:28:40.995Z,38.17
2022-07-26T06:31:09.843Z,36.78
2022-07-26T06:33:38.583Z,40.78
2022-07-26T06:36:08.972Z,37.38
2022-07-26T06:38:39.091Z,32.45
2022-07-26T06:41:07.903Z,27.25
2022-07-26T06:43:36.590Z,29.17
2022-07-26T06:46:05.186Z,24.05
2022-07-26T06:48:33.847Z,30.17
2022-07-26T06:51:05.171Z,27.05
2022-07-26T06:53:33.652Z,26.20
2022-07-26T06:56:03.577Z,26.95
2022-07-26T06:58:32.150Z,21.83
2022-07-26T07:01:00.881Z,24.25
2022-07-26T07:03:29.394Z,21.88
2022-07-26T07:05:57.862Z,20.63
2022-07-26T07:08:26.414Z,18.00
2022-07-26T07:10:57.185Z,26.20
2022-07-26T07:13:28.369Z,17.02
2022-07-26T07:15:57.100Z,16.30
2022-07-26T07:18:25.734Z,14.93
2022-07-26T07:20:54.276Z,15.38
2022-07-26T07:23:23.443Z,15.38
2022-07-26T07:25:52.267Z,16.23
2022-07-26T07:28:20.930Z,15.10
2022-07-26T07:30:54.277Z,16.05
2022-07-26T07:33:23.341Z,18.85
2022-07-26T07:35:54.398Z,13.38
2022-07-26T07:38:22.986Z,15.88
2022-07-26T07:40:52.176Z,13.13
2022-07-26T07:43:20.656Z,17.13
2022-07-26T07:45:49.202Z,17.42
2022-07-26T07:48:19.212Z,16.90
2022-07-26T07:50:47.912Z,11.60
2022-07-26T07:53:17.509Z,14.27
2022-07-26T07:55:48.529Z,13.98
2022-07-26T07:58:18.914Z,20.58
2022-07-26T08:00:48.623Z,18.00
2022-07-26T08:03:19.333Z,21.33
2022-07-26T08:05:49.335Z,22.17
2022-07-26T08:08:22.395Z,17.88
2022-07-26T08:10:53.354Z,12.23
2022-07-26T08:13:23.655Z,15.05
2022-07-26T08:15:52.829Z,15.55
2022-07-26T08:18:24.027Z,20.05
2022-07-26T08:20:54.008Z,15.93
2022-07-26T08:23:23.137Z,16.92
2022-07-26T08:26:03.314Z,19.27
2022-07-26T08:28:47.281Z,27.23
2022-07-26T08:31:16.703Z,12.98
2022-07-26T08:33:47.090Z,14.27
2022-07-26T08:36:16.780Z,19.92
2022-07-26T08:38:47.821Z,18.98
2022-07-26T08:41:17.595Z,19.92
2022-07-26T08:43:53.092Z,26.02
2022-07-26T08:46:25.756Z,17.30
2022-07-26T08:48:58.601Z,11.98
2022-07-26T08:51:28.069Z,11.48
2022-07-26T08:54:05.376Z,14.15
2022-07-26T08:56:40.038Z,10.10
2022-07-26T08:59:21.022Z,15.50
2022-07-26T09:01:57.090Z,7.15
2022-07-26T09:04:32.084Z,8.77
2022-07-26T09:07:05.707Z,9.68
2022-07-26T09:09:36.327Z,11.18
2022-07-26T09:12:17.188Z,12.20
2022-07-26T09:14:47.565Z,9.65
2022-07-26T09:17:18.708Z,12.65
2022-07-26T09:20:06.182Z,11.00
2022-07-26T09:22:34.791Z,13.48
2022-07-26T09:25:04.023Z,13.18
2022-07-26T09:27:37.092Z,18.15
2022-07-26T09:30:10.531Z,14.73
2022-07-26T09:32:39.174Z,13.73
2022-07-26T09:35:44.559Z,14.52
2022-07-26T09:38:15.451Z,10.40
2022-07-26T09:40:46.813Z,13.25
2022-07-26T09:43:24.365Z,20.67
2022-07-26T09:46:07.547Z,16.23
2022-07-26T09:49:08.451Z,14.27
2022-07-26T09:51:39.780Z,20.55
2022-07-26T09:54:11.274Z,10.18
2022-07-26T09:56:48.829Z,13.23
2022-07-26T09:59:19.837Z,10.52
2022-07-26T10:01:49.364Z,9.02
2022-07-26T10:04:19.541Z,8.38
2022-07-26T10:06:49.773Z,9.60
2022-07-26T10:09:19.756Z,9.73
2022-07-26T10:11:54.316Z,21.80
2022-07-26T10:14:43.278Z,9.63
2022-07-26T10:17:43.166Z,12.80
2022-07-26T10:20:33.044Z,9.70
2022-07-26T10:23:04.981Z,14.05
2022-07-26T10:25:49.728Z,7.65
2022-07-26T10:28:26.928Z,9.18
2022-07-26T10:31:26.827Z,8.32
2022-07-26T10:33:56.651Z,12.43
2022-07-26T10:36:31.753Z,11.20
2022-07-26T10:39:14.117Z,6.32
2022-07-26T10:41:45.441Z,8.05
2022-07-26T10:44:22.341Z,10.30
2022-07-26T10:47:18.477Z,11.13
2022-07-26T10:49:57.764Z,10.52
2022-07-26T10:52:29.158Z,10.10
2022-07-26T10:55:19.700Z,10.75
2022-07-26T10:57:50.193Z,10.07
2022-07-26T11:00:22.367Z,7.28
2022-07-26T11:02:56.632Z,9.85
2022-07-26T11:05:31.023Z,18.45
2022-07-26T11:08:05.345Z,11.27
2022-07-26T11:10:37.552Z,10.88
2022-07-26T11:13:12.307Z,9.35
2022-07-26T11:15:43.090Z,8.63
2022-07-26T11:18:14.373Z,12.27
2022-07-26T11:20:44.221Z,7.93
2022-07-26T11:23:28.199Z,6.38
2022-07-26T11:26:12.900Z,11.07
2022-07-26T11:28:49.269Z,12.35
2022-07-26T11:31:20.050Z,7.93
2022-07-26T11:33:51.256Z,16.40
2022-07-26T11:36:20.843Z,11.07
2022-07-26T11:38:52.563Z,8.13
2022-07-26T11:41:34.597Z,10.52
2022-07-26T11:44:06.496Z,8.48
2022-07-26T11:46:38.404Z,10.23
2022-07-26T11:49:15.053Z,8.20
2022-07-26T11:51:51.638Z,11.45
2022-07-26T11:54:20.374Z,12.05
2022-07-26T11:56:55.719Z,8.05
2022-07-26T11:59:25.873Z,8.00
2022-07-26T12:01:55.071Z,11.38
2022-07-26T12:04:25.450Z,9.00
2022-07-26T12:06:55.427Z,9.10
2022-07-26T12:09:32.920Z,13.77
2022-07-26T12:12:08.388Z,9.52
2022-07-26T12:14:38.704Z,9.05
2022-07-26T12:17:15.374Z,11.98
2022-07-26T12:19:44.931Z,12.23
2022-07-26T12:22:15.410Z,9.25
2022-07-26T12:24:47.676Z,11.70
2022-07-26T12:27:19.841Z,9.52
2022-07-26T12:29:49.997Z,13.60
2022-07-26T12:32:20.109Z,6.75
2022-07-26T12:35:02.460Z,8.70
2022-07-26T12:37:40.275Z,8.32
2022-07-26T12:40:11.686Z,9.05
2022-07-26T12:42:43.212Z,9.63
2022-07-26T12:45:14.137Z,9.63
2022-07-26T12:47:44.409Z,10.05
2022-07-26T12:50:14.695Z,14.40
2022-07-26T12:52:43.798Z,7.95
2022-07-26T12:55:15.052Z,12.10
2022-07-26T12:57:47.663Z,11.27
2022-07-26T13:00:18.628Z,9.93
2022-07-26T13:02:47.594Z,7.35
2022-07-26T13:05:16.772Z,10.13
2022-07-26T13:07:45.668Z,7.57
2022-07-26T13:10:32.439Z,5.53
2022-07-26T13:13:03.851Z,11.73
2022-07-26T13:15:35.256Z,9.50
2022-07-26T13:18:07.670Z,11.70
2022-07-26T13:20:37.924Z,11.20
2022-07-26T13:23:11.182Z,5.97
2022-07-26T13:25:40.696Z,7.10
2022-07-26T13:28:10.883Z,13.02
2022-07-26T13:30:43.265Z,6.40
2022-07-26T13:33:12.348Z,12.30
2022-07-26T13:35:42.764Z,7.90
2022-07-26T13:38:11.685Z,11.38
2022-07-26T13:40:40.230Z,11.95
2022-07-26T13:43:10.374Z,12.27
2022-07-26T13:45:38.895Z,9.38
2022-07-26T13:48:08.008Z,10.88
2022-07-26T13:50:36.478Z,19.75
2022-07-26T13:53:05.828Z,8.43
2022-07-26T13:55:34.418Z,5.05
2022-07-26T13:58:07.729Z,6.32
2022-07-26T14:00:41.284Z,10.32
2022-07-26T14:03:10.194Z,8.68
2022-07-26T14:05:40.273Z,10.20
2022-07-26T14:08:08.761Z,8.23
2022-07-26T14:10:39.704Z,7.75
2022-07-26T14:13:09.164Z,9.35
2022-07-26T14:15:39.176Z,6.97
2022-07-26T14:18:07.808Z,5.68
2022-07-26T14:20:36.339Z,5.55
2022-07-26T14:23:04.891Z,5.25
2022-07-26T14:25:33.502Z,9.98
2022-07-26T14:28:02.248Z,4.30
2022-07-26T14:30:30.783Z,5.53
2022-07-26T14:33:01.463Z,6.18
2022-07-26T14:35:31.304Z,8.43
2022-07-26T14:38:00.663Z,6.50
2022-07-26T14:40:29.253Z,8.93
2022-07-26T14:42:57.887Z,5.95
2022-07-26T14:45:26.607Z,5.15
2022-07-26T14:47:55.204Z,8.40
2022-07-26T14:50:26.211Z,8.77
2022-07-26T14:52:55.846Z,6.90
2022-07-26T14:55:25.577Z,6.88
2022-07-26T14:57:54.602Z,8.00
2022-07-26T15:00:23.136Z,8.60
2022-07-26T15:02:51.879Z,6.32
2022-07-26T15:05:20.598Z,5.65
2022-07-26T15:07:50.522Z,4.72
2022-07-26T15:10:29.213Z,7.88
2022-07-26T15:12:58.492Z,7.53
2022-07-26T15:15:27.411Z,6.05
2022-07-26T15:17:56.291Z,8.77
2022-07-26T15:20:25.596Z,6.95
2022-07-26T15:22:55.720Z,9.50
2022-07-26T15:25:24.555Z,9.20
2022-07-26T15:27:53.774Z,11.48
2022-07-26T15:30:23.927Z,9.95
2022-07-26T15:32:54.964Z,9.70
2022-07-26T15:35:23.675Z,13.13
2022-07-26T15:37:52.206Z,8.00
2022-07-26T15:40:22.223Z,10.52
2022-07-26T15:42:53.029Z,7.80
2022-07-26T15:45:22.598Z,9.45
2022-07-26T15:47:57.357Z,5.72
2022-07-26T15:50:29.825Z,5.15
2022-07-26T15:52:58.323Z,9.75
2022-07-26T15:55:28.279Z,6.78
2022-07-26T15:57:56.761Z,8.18
2022-07-26T16:00:25.353Z,7.30
2022-07-26T16:02:54.256Z,7.57
2022-07-26T16:05:22.858Z,5.63
2022-07-26T16:07:51.342Z,5.57
2022-07-26T16:10:19.835Z,6.65
2022-07-26T16:12:49.637Z,5.72
2022-07-26T16:15:18.182Z,9.45
2022-07-26T16:17:46.633Z,7.82
2022-07-26T16:20:15.913Z,10.75
2022-07-26T16:22:44.479Z,6.72
2022-07-26T16:25:14.047Z,9.75
2022-07-26T16:27:43.875Z,4.97
2022-07-26T16:30:16.117Z,7.90
2022-07-26T16:32:44.900Z,10.57
2022-07-26T16:35:13.734Z,8.32
2022-07-26T16:37:42.592Z,6.78
2022-07-26T16:40:12.271Z,10.32
2022-07-26T16:42:40.779Z,7.88
2022-07-26T16:45:10.189Z,10.77
2022-07-26T16:47:40.015Z,5.50
2022-07-26T16:50:09.380Z,7.07
2022-07-26T16:52:37.931Z,10.10
2022-07-26T16:55:10.920Z,9.05
2022-07-26T16:57:39.686Z,7.80
2022-07-26T17:00:10.911Z,7.93
2022-07-26T17:02:40.946Z,9.15
2022-07-26T17:05:10.578Z,6.80
2022-07-26T17:07:39.129Z,6.03
2022-07-26T17:10:09.885Z,7.93
2022-07-26T17:12:40.979Z,14.82
2022-07-26T17:15:11.130Z,20.05
2022-07-26T17:17:42.917Z,20.85
2022-07-26T17:20:14.784Z,13.77
2022-07-26T17:22:43.340Z,11.00
2022-07-26T17:25:12.175Z,10.15
2022-07-26T17:27:40.700Z,27.45
2022-07-26T17:30:10.267Z,28.38
2022-07-26T17:32:40.252Z,10.98
2022-07-26T17:35:10.012Z,7.10
2022-07-26T17:37:38.480Z,6.47
2022-07-26T17:40:11.127Z,4.97
2022-07-26T17:42:40.048Z,7.95
2022-07-26T17:45:09.381Z,15.00
2022-07-26T17:47:37.841Z,12.88
2022-07-26T17:50:39.156Z,10.82
2022-07-26T17:52:57.914Z,25.35
2022-07-26T17:55:26.384Z,13.88
2022-07-26T17:57:54.812Z,17.98
2022-07-26T18:00:28.596Z,38.45
2022-07-26T18:02:58.581Z,20.35
2022-07-26T18:05:34.905Z,18.50
2022-07-26T18:08:04.871Z,19.92
2022-07-26T18:10:33.383Z,28.77
2022-07-26T18:13:01.976Z,19.65
2022-07-26T18:15:30.511Z,16.13
2022-07-26T18:17:58.947Z,18.88
2022-07-26T18:20:28.975Z,17.75
2022-07-26T18:22:59.184Z,16.77
2022-07-26T18:25:27.625Z,15.40
2022-07-26T18:27:56.102Z,16.08
2022-07-26T18:30:24.852Z,17.23
2022-07-26T18:32:53.408Z,19.25
2022-07-26T18:35:22.058Z,17.52
2022-07-26T18:37:53.051Z,16.58
2022-07-26T18:40:22.333Z,17.52
2022-07-26T18:42:51.335Z,18.40
2022-07-26T18:45:20.273Z,20.30
2022-07-26T18:47:48.765Z,18.77
2022-07-26T18:50:17.461Z,14.80
2022-07-26T18:52:46.301Z,17.98
2022-07-26T18:55:16.303Z,13.25
2022-07-26T18:57:45.818Z,13.80
2022-07-26T19:00:17.949Z,11.68
2022-07-26T19:02:48.060Z,15.93
2022-07-26T19:05:17.437Z,19.33
2022-07-26T19:07:46.235Z,17.52
2022-07-26T19:10:18.253Z,16.73
2022-07-26T19:12:50.371Z,18.92
2022-07-26T19:15:19.583Z,14.77
2022-07-26T19:17:48.267Z,16.45
2022-07-26T19:20:16.854Z,16.38
2022-07-26T19:22:47.378Z,13.35
2022-07-26T19:25:17.354Z,13.90
2022-07-26T19:27:45.942Z,26.08
2022-07-26T19:30:15.020Z,15.75
2022-07-26T19:32:43.489Z,24.77
2022-07-26T19:35:12.057Z,16.75
2022-07-26T19:37:40.567Z,15.82
2022-07-26T19:40:10.037Z,16.45
2022-07-26T19:42:42.153Z,16.20
2022-07-26T19:45:11.681Z,15.88
2022-07-26T19:47:40.265Z,18.65
2022-07-26T19:50:10.158Z,18.55
2022-07-26T19:52:38.776Z,20.02
2022-07-26T19:55:08.519Z,19.73
2022-07-26T19:57:37.199Z,19.75
2022-07-26T20:00:09.379Z,19.48
2022-07-26T20:02:41.725Z,16.83
2022-07-26T20:05:12.315Z,21.42
2022-07-26T20:07:40.858Z,24.40
2022-07-26T20:10:10.634Z,16.05
2022-07-26T20:12:39.562Z,15.15
2022-07-26T20:15:11.544Z,22.73
2022-07-26T20:17:41.445Z,22.10
2022-07-26T20:20:14.109Z,18.40
2022-07-26T20:22:42.562Z,25.88
2022-07-26T20:25:11.394Z,24.10
2022-07-26T20:27:40.080Z,25.70
2022-07-26T20:30:11.269Z,21.25
2022-07-26T20:32:39.807Z,21.50
2022-07-26T20:35:09.026Z,26.45
2022-07-26T20:37:37.719Z,21.75
2022-07-26T20:40:08.332Z,24.90
2022-07-26T20:42:38.926Z,22.98
2022-07-26T20:45:13.219Z,25.55
2022-07-26T20:47:43.102Z,22.67
2022-07-26T20:50:12.670Z,27.42
2022-07-26T20:52:41.427Z,25.08
2022-07-26T20:55:10.934Z,21.05
2022-07-26T20:57:39.548Z,22.55
2022-07-26T21:00:11.093Z,29.25
2022-07-26T21:02:41.154Z,25.90
2022-07-26T21:05:11.344Z,23.30
2022-07-26T21:07:58.560Z,28.10
2022-07-26T21:10:29.198Z,28.85
2022-07-26T21:13:00.496Z,23.83
2022-07-26T21:15:29.501Z,25.60
2022-07-26T21:18:01.206Z,22.90
2022-07-26T21:20:29.798Z,25.13
2022-07-26T21:23:12.776Z,23.00
2022-07-26T21:25:44.794Z,27.95
2022-07-26T21:28:13.427Z,22.50
2022-07-26T21:30:42.374Z,30.23
2022-07-26T21:33:12.187Z,23.65
2022-07-26T21:35:42.044Z,24.85
2022-07-26T21:38:10.890Z,24.70
2022-07-26T21:40:39.613Z,25.58
2022-07-26T21:43:08.451Z,23.95
2022-07-26T21:45:37.375Z,26.27
2022-07-26T21:48:06.164Z,24.40
2022-07-26T21:50:36.061Z,25.67
2022-07-26T21:53:04.739Z,27.77
2022-07-26T21:55:33.569Z,21.58
2022-07-26T21:58:02.050Z,23.63
2022-07-26T22:00:30.608Z,22.25
2022-07-26T22:02:59.112Z,21.65
2022-07-26T22:05:38.119Z,23.88
2022-07-26T22:08:10.345Z,23.35
2022-07-26T22:10:43.933Z,20.95
2022-07-26T22:13:14.450Z,18.95
2022-07-26T22:15:44.017Z,20.13
2022-07-26T22:18:12.752Z,18.38
2022-07-26T22:20:41.900Z,22.05
2022-07-26T22:23:13.589Z,25.05
2022-07-26T22:25:42.343Z,21.20
2022-07-26T22:28:12.063Z,21.98
2022-07-26T22:30:46.563Z,23.10
2022-07-26T22:33:15.117Z,20.70
2022-07-26T22:35:43.729Z,19.45
2022-07-26T22:38:14.073Z,23.30
2022-07-26T22:40:46.052Z,24.67
2022-07-26T22:43:15.229Z,25.60
2022-07-26T22:45:44.206Z,25.98
2022-07-26T22:48:13.094Z,19.55
2022-07-26T22:50:41.528Z,21.67
2022-07-26T22:53:10.018Z,20.00
2022-07-26T22:55:39.877Z,19.98
2022-07-26T22:58:08.317Z,23.50
2022-07-26T23:00:36.985Z,22.48
2022-07-26T23:03:11.836Z,25.25
2022-07-26T23:05:49.159Z,20.55
2022-07-26T23:08:44.435Z,24.67
2022-07-26T23:11:08.709Z,23.23
2022-07-26T23:13:37.349Z,20.20
2022-07-26T23:16:06.504Z,15.48
2022-07-26T23:18:35.484Z,19.55
2022-07-26T23:21:04.438Z,19.23
2022-07-26T23:23:33.333Z,14.85
2022-07-26T23:26:02.432Z,13.65
2022-07-26T23:28:37.626Z,12.20
2022-07-26T23:31:11.712Z,14.23
2022-07-26T23:33:51.301Z,16.42
2022-07-26T23:36:23.371Z,14.98
2022-07-26T23:38:52.108Z,13.88
2022-07-26T23:41:20.962Z,13.77
2022-07-26T23:43:51.727Z,9.88
2022-07-26T23:46:20.274Z,11.40
2022-07-26T23:48:49.331Z,12.15
2022-07-26T23:51:19.522Z,8.57
2022-07-26T23:53:48.424Z,12.60
2022-07-26T23:56:17.141Z,8.30
2022-07-26T23:58:45.686Z,8.25
